Time;durP1;ratioP1;P1;durP2;ratioP2;P2;SDS_P1;SDS_P2;PMS_P1;PMS_P2;Temp;Humidity;BMP_temperature;BMP_pressure;BME280_temperature;BME280_humidity;BME280_pressure;Samples;Min_cycle;Max_cycle;Signal;HPM_P1;HPM_P2
2021/09/23 00:00:27;;;;;;;6.57;5.43;;;;;;;9.80;81.53;96347.72;6157065;23;20230;-81
2021/09/23 00:05:30;;;;;;;6.53;4.47;;;;;;;9.74;81.61;96348.25;6154299;23;20534;-79
2021/09/23 00:07:56;;;;;;;6.80;5.50;;;;;;;9.72;81.67;96342.34;6155790;23;20151;-79
2021/09/23 00:10:24;;;;;;;9.03;5.43;;;;;;;9.79;81.49;96340.06;6131149;23;20621;-78
2021/09/23 00:12:51;;;;;;;8.93;5.43;;;;;;;9.78;81.42;96334.06;6131183;23;20151;-79
2021/09/23 00:15:17;;;;;;;7.87;5.17;;;;;;;9.71;81.90;96335.50;6155011;23;20158;-78
2021/09/23 00:17:47;;;;;;;8.57;5.50;;;;;;;9.71;81.80;96340.69;6156519;23;20155;-79
2021/09/23 00:20:21;;;;;;;8.87;5.30;;;;;;;9.77;81.99;96340.19;6156673;23;20131;-79
2021/09/23 00:22:46;;;;;;;9.03;5.87;;;;;;;9.71;82.14;96332.91;6156653;23;20171;-79
2021/09/23 00:25:12;;;;;;;8.30;5.03;;;;;;;9.69;82.10;96331.38;6155367;23;20159;-79
2021/09/23 00:27:37;;;;;;;10.33;5.27;;;;;;;9.74;81.87;96324.06;6131722;23;20160;-78
2021/09/23 00:30:04;;;;;;;8.47;5.40;;;;;;;9.72;81.84;96323.34;6131992;23;20162;-79
2021/09/23 00:32:29;;;;;;;7.80;5.40;;;;;;;9.72;81.56;96316.41;6155851;23;20179;-79
2021/09/23 00:34:54;;;;;;;11.10;5.37;;;;;;;9.77;81.25;96318.63;6130773;23;20499;-79
2021/09/23 00:37:20;;;;;;;10.40;5.63;;;;;;;9.67;81.96;96315.13;6157402;23;20637;-80
2021/09/23 00:39:45;;;;;;;9.30;5.47;;;;;;;9.61;81.65;96311.25;6158247;23;20175;-79
2021/09/23 00:42:10;;;;;;;10.67;4.80;;;;;;;9.64;81.85;96316.22;6155318;23;20159;-79
2021/09/23 00:44:36;;;;;;;7.60;5.13;;;;;;;9.62;81.26;96313.72;6154780;23;20171;-79
2021/09/23 00:47:01;;;;;;;8.07;5.23;;;;;;;9.68;81.19;96312.41;6155005;23;20559;-79
2021/09/23 00:49:26;;;;;;;8.93;5.23;;;;;;;9.67;81.07;96310.78;6155828;23;20152;-79
2021/09/23 00:51:52;;;;;;;7.90;5.23;;;;;;;9.64;80.90;96309.25;6155069;23;20175;-79
2021/09/23 00:54:18;;;;;;;8.33;5.60;;;;;;;9.73;80.67;96304.28;6155961;23;20155;-79
2021/09/23 00:56:43;;;;;;;8.73;5.27;;;;;;;9.77;80.59;96313.44;6155636;23;20183;-79
2021/09/23 00:59:09;;;;;;;9.07;5.40;;;;;;;9.77;80.35;96308.25;6156235;23;20174;-78
2021/09/23 01:01:34;;;;;;;8.57;4.67;;;;;;;9.78;80.12;96305.53;6156681;23;20175;-78
2021/09/23 01:03:59;;;;;;;5.23;4.67;;;;;;;9.77;80.19;96305.66;6155785;23;20370;-79
2021/09/23 01:06:25;;;;;;;6.60;4.30;;;;;;;9.81;79.75;96307.91;6156437;23;20530;-78
2021/09/23 01:08:58;;;;;;;9.77;4.60;;;;;;;9.77;80.06;96303.06;6156286;23;20163;-79
2021/09/23 01:11:26;;;;;;;7.20;4.70;;;;;;;9.84;79.48;96299.03;6131176;23;20183;-79
2021/09/23 01:13:52;;;;;;;5.27;4.37;;;;;;;9.78;79.32;96302.94;6156110;23;20504;-79
2021/09/23 01:16:17;;;;;;;5.50;4.40;;;;;;;9.80;79.38;96303.63;6156386;23;20171;-79
2021/09/23 01:18:42;;;;;;;5.07;4.37;;;;;;;9.77;79.24;96310.84;6156660;23;20155;-79
2021/09/23 01:21:09;;;;;;;7.10;4.50;;;;;;;9.69;79.45;96306.28;6155987;23;20221;-80
2021/09/23 01:23:42;;;;;;;6.07;4.37;;;;;;;9.70;79.39;96304.50;6155890;23;20226;-80
2021/09/23 01:26:09;;;;;;;8.07;4.37;;;;;;;9.68;79.49;96296.84;6156912;23;20660;-78
2021/09/23 01:28:35;;;;;;;6.27;3.87;;;;;;;9.74;79.05;96295.53;6156784;23;20152;-80
2021/09/23 01:31:01;;;;;;;6.80;4.53;;;;;;;9.75;79.03;96290.22;6131167;23;20183;-80
2021/09/23 01:33:27;;;;;;;5.07;3.77;;;;;;;9.75;79.47;96286.81;6155690;23;20151;-80
2021/09/23 01:35:53;;;;;;;6.80;4.07;;;;;;;9.78;78.86;96286.56;6131182;23;20175;-81
2021/09/23 01:38:18;;;;;;;5.13;3.77;;;;;;;9.73;78.92;96281.75;6156553;23;20155;-80
2021/09/23 01:40:43;;;;;;;5.93;3.87;;;;;;;9.64;79.51;96285.09;6155319;23;20152;-80
2021/09/23 01:43:09;;;;;;;8.33;3.90;;;;;;;9.59;79.20;96285.44;6156973;23;20155;-80
2021/09/23 01:45:34;;;;;;;4.90;4.00;;;;;;;9.61;79.37;96291.31;6130884;23;20179;-80
2021/09/23 01:47:59;;;;;;;6.93;4.33;;;;;;;9.52;79.50;96286.88;6156930;23;20151;-81
2021/09/23 01:50:25;;;;;;;7.87;3.90;;;;;;;9.54;79.67;96286.75;6131616;23;20246;-80
2021/09/23 01:52:50;;;;;;;6.33;4.03;;;;;;;9.52;79.90;96271.31;6131888;23;20243;-80
2021/09/23 01:55:15;;;;;;;6.10;3.97;;;;;;;9.48;79.94;96266.53;6131032;23;20171;-80
2021/09/23 01:57:41;;;;;;;7.87;3.87;;;;;;;9.54;79.35;96263.41;6137397;23;20156;-80
2021/09/23 02:00:06;;;;;;;8.10;4.23;;;;;;;9.59;79.37;96266.47;6140796;23;20202;-78
2021/09/23 02:02:32;;;;;;;5.63;3.80;;;;;;;9.56;79.15;96269.31;6165244;23;20558;-80
2021/09/23 02:04:57;;;;;;;5.83;4.17;;;;;;;9.58;78.85;96262.25;6164491;23;20158;-80
2021/09/23 02:07:23;;;;;;;5.37;3.93;;;;;;;9.59;78.79;96267.28;6165814;23;20179;-80
2021/09/23 02:09:48;;;;;;;6.57;3.80;;;;;;;9.57;78.94;96270.97;6163824;23;20165;-79
2021/09/23 02:12:14;;;;;;;6.33;3.90;;;;;;;9.62;78.74;96274.81;6155588;23;20179;-80
2021/09/23 02:14:39;;;;;;;4.60;4.10;;;;;;;9.69;78.88;96266.56;6153884;23;20182;-80
2021/09/23 02:17:04;;;;;;;5.33;3.97;;;;;;;9.56;78.78;96271.91;6154034;23;20183;-80
2021/09/23 02:19:30;;;;;;;7.87;4.20;;;;;;;9.58;78.81;96262.25;6153648;23;20210;-80
2021/09/23 02:21:55;;;;;;;6.13;4.00;;;;;;;9.58;78.43;96265.66;6129211;23;20162;-80
2021/09/23 02:24:20;;;;;;;6.60;4.50;;;;;;;9.61;78.73;96265.41;6153693;23;20605;-79
2021/09/23 02:26:46;;;;;;;6.43;4.10;;;;;;;9.59;78.98;96267.28;6154451;23;20727;-80
2021/09/23 02:29:11;;;;;;;6.30;4.33;;;;;;;9.54;78.45;96259.09;6154628;23;20164;-80
2021/09/23 02:31:36;;;;;;;7.13;4.00;;;;;;;9.56;78.82;96258.94;6154681;23;20179;-79
2021/09/23 02:34:02;;;;;;;6.30;3.90;;;;;;;9.50;79.00;96259.44;6153840;23;20159;-80
2021/09/23 02:36:27;;;;;;;7.03;4.10;;;;;;;9.52;79.03;96247.16;6129567;23;20179;-80
2021/09/23 02:38:52;;;;;;;7.43;4.10;;;;;;;9.58;78.58;96238.91;6130118;23;20146;-79
2021/09/23 02:41:18;;;;;;;4.47;3.43;;;;;;;9.59;78.84;96230.16;6153373;23;20174;-80
2021/09/23 02:43:43;;;;;;;4.27;3.40;;;;;;;9.55;78.64;96223.59;6128862;23;20156;-79
2021/09/23 02:46:08;;;;;;;5.13;4.20;;;;;;;9.51;79.24;96223.00;6154304;23;20225;-79
2021/09/23 02:48:34;;;;;;;6.93;3.90;;;;;;;9.56;79.14;96217.47;6129360;23;20155;-80
2021/09/23 02:50:59;;;;;;;6.37;4.10;;;;;;;9.51;79.04;96217.00;6154292;23;20179;-80
2021/09/23 02:53:24;;;;;;;5.67;3.50;;;;;;;9.49;79.13;96208.53;6156055;23;20155;-80
2021/09/23 02:55:50;;;;;;;5.60;3.97;;;;;;;9.47;78.95;96205.25;6128741;23;20707;-79
2021/09/23 02:58:15;;;;;;;6.50;4.63;;;;;;;9.46;79.49;96199.25;6129606;23;20663;-79
2021/09/23 03:00:40;;;;;;;8.30;4.30;;;;;;;9.44;79.60;96195.13;6154866;23;20653;-80
2021/09/23 03:03:07;;;;;;;7.00;4.37;;;;;;;9.46;79.47;96188.06;6154560;23;20463;-80
2021/09/23 03:05:32;;;;;;;6.70;4.27;;;;;;;9.54;79.43;96190.81;6129170;23;20206;-80
2021/09/23 03:07:58;;;;;;;6.23;3.83;;;;;;;9.47;79.32;96190.53;6155896;23;20155;-80
2021/09/23 03:10:23;;;;;;;15.00;4.77;;;;;;;9.48;79.26;96199.94;6154674;23;20163;-80
2021/09/23 03:12:48;;;;;;;5.47;4.27;;;;;;;9.39;79.57;96192.09;6129703;23;20578;-80
2021/09/23 03:15:13;;;;;;;5.90;4.67;;;;;;;9.41;80.07;96192.78;6153737;23;20159;-80
2021/09/23 03:17:39;;;;;;;9.90;5.50;;;;;;;9.43;79.57;96183.91;6153654;23;20167;-77
2021/09/23 03:20:05;;;;;;;9.13;4.70;;;;;;;9.39;79.81;96184.31;6154518;23;20166;-79
2021/09/23 03:22:30;;;;;;;5.37;4.27;;;;;;;9.43;79.65;96189.09;6130043;23;20613;-77
2021/09/23 03:24:56;;;;;;;7.30;4.60;;;;;;;9.45;79.46;96192.38;6153973;23;20178;-78
2021/09/23 03:27:21;;;;;;;4.90;3.70;;;;;;;9.42;79.31;96181.47;6129821;23;20175;-78
2021/09/23 03:29:47;;;;;;;6.00;4.33;;;;;;;9.45;79.50;96181.19;6154758;23;20655;-79
2021/09/23 03:32:12;;;;;;;10.67;4.70;;;;;;;9.44;79.29;96172.59;6156470;23;20198;-78
2021/09/23 03:34:37;;;;;;;7.67;4.57;;;;;;;9.43;79.55;96173.56;6157742;23;20155;-78
2021/09/23 03:37:03;;;;;;;4.83;4.33;;;;;;;9.40;79.63;96171.22;6156601;23;20182;-78
2021/09/23 03:39:28;;;;;;;8.23;4.43;;;;;;;9.35;79.92;96163.81;6131834;23;20469;-80
2021/09/23 03:41:53;;;;;;;5.53;3.87;;;;;;;9.34;79.80;96164.75;6155948;23;20597;-79
2021/09/23 03:44:19;;;;;;;4.80;3.70;;;;;;;9.40;79.52;96163.44;6157062;23;20218;-79
2021/09/23 03:46:44;;;;;;;6.50;4.13;;;;;;;9.40;79.06;96162.63;6157163;23;20179;-79
2021/09/23 03:49:10;;;;;;;7.23;3.87;;;;;;;9.47;78.81;96159.41;6132315;23;20552;-79
2021/09/23 03:51:35;;;;;;;6.30;3.90;;;;;;;9.38;78.77;96159.34;6157039;23;20199;-79
2021/09/23 03:54:00;;;;;;;7.17;3.83;;;;;;;9.42;78.79;96153.75;6156093;23;20206;-79
2021/09/23 03:56:26;;;;;;;5.37;3.53;;;;;;;9.46;78.55;96159.53;6156734;23;20190;-80
2021/09/23 03:58:51;;;;;;;4.87;3.40;;;;;;;9.50;78.44;96148.78;6156018;23;20163;-79
2021/09/23 04:01:16;;;;;;;4.33;3.80;;;;;;;9.43;78.63;96147.63;6157435;23;20177;-79
2021/09/23 04:03:42;;;;;;;5.63;3.93;;;;;;;9.46;78.64;96144.81;6155865;23;20152;-79
2021/09/23 04:06:07;;;;;;;5.63;3.90;;;;;;;9.33;79.07;96155.34;6157158;23;20179;-80
2021/09/23 04:08:33;;;;;;;4.57;4.07;;;;;;;9.36;78.96;96151.66;6158297;23;20171;-79
2021/09/23 04:10:58;;;;;;;4.50;4.00;;;;;;;9.38;78.41;96143.78;6133252;23;20183;-81
2021/09/23 04:13:23;;;;;;;6.90;3.97;;;;;;;9.38;78.50;96143.78;6157049;23;20159;-81
2021/09/23 04:15:49;;;;;;;6.77;3.80;;;;;;;9.32;78.58;96140.75;6156920;23;20175;-81
2021/09/23 04:18:16;;;;;;;4.63;3.57;;;;;;;9.38;78.69;96138.59;6157383;23;20174;-80
2021/09/23 04:20:43;;;;;;;4.93;3.90;;;;;;;9.35;78.53;96132.69;6157622;23;20520;-81
2021/09/23 04:23:08;;;;;;;7.00;3.97;;;;;;;9.43;78.28;96126.06;6157124;23;20194;-80
2021/09/23 04:25:34;;;;;;;4.67;3.57;;;;;;;9.34;78.45;96125.88;6156722;23;20179;-80
2021/09/23 04:27:59;;;;;;;4.83;3.70;;;;;;;9.33;78.54;96121.63;6156582;23;20162;-81
2021/09/23 04:30:24;;;;;;;6.90;4.57;;;;;;;9.35;78.29;96119.75;6156600;23;20152;-81
2021/09/23 04:32:50;;;;;;;4.60;3.80;;;;;;;9.35;78.57;96111.97;6156723;23;20167;-82
2021/09/23 04:35:15;;;;;;;5.43;3.50;;;;;;;9.36;78.19;96110.19;6156177;23;20155;-81
2021/09/23 04:37:40;;;;;;;4.97;3.60;;;;;;;9.31;78.61;96117.53;6132028;23;20162;-82
2021/09/23 04:40:06;;;;;;;7.07;4.10;;;;;;;9.27;78.97;96111.78;6156127;23;20156;-81
2021/09/23 04:42:32;;;;;;;6.20;4.00;;;;;;;9.24;78.99;96118.97;6130202;23;20190;-81
2021/09/23 04:44:57;;;;;;;4.43;3.47;;;;;;;9.27;79.14;96108.34;6155940;23;20169;-79
2021/09/23 04:47:23;;;;;;;7.57;4.10;;;;;;;9.19;79.17;96100.38;6154885;23;20191;-80
2021/09/23 04:49:48;;;;;;;5.53;3.97;;;;;;;9.25;78.88;96098.13;6156320;23;20155;-80
2021/09/23 04:52:13;;;;;;;5.83;4.23;;;;;;;9.20;78.89;96092.50;6156271;23;20573;-79
2021/09/23 04:54:40;;;;;;;6.53;4.20;;;;;;;9.19;79.24;96100.38;6131026;23;20629;-80
2021/09/23 04:57:05;;;;;;;8.73;4.10;;;;;;;9.06;79.49;96108.34;6132503;23;20183;-79
2021/09/23 04:59:30;;;;;;;5.53;3.77;;;;;;;9.05;79.36;96106.72;6158255;23;20647;-79
2021/09/23 05:01:56;;;;;;;5.77;4.00;;;;;;;9.07;79.60;96110.00;6156045;23;20152;-79
2021/09/23 05:04:21;;;;;;;6.40;4.07;;;;;;;9.09;79.24;96108.91;6151198;23;20167;-80
2021/09/23 05:06:46;;;;;;;5.50;4.13;;;;;;;9.08;79.45;96109.03;6153767;23;20199;-80
2021/09/23 05:09:11;;;;;;;6.13;4.27;;;;;;;9.02;79.29;96097.44;6155077;23;20163;-80
2021/09/23 05:11:37;;;;;;;7.03;3.53;;;;;;;9.12;79.45;96092.31;6155639;23;20238;-81
2021/09/23 05:14:03;;;;;;;8.20;4.60;;;;;;;9.23;78.84;96094.84;6157440;23;20225;-80
2021/09/23 05:16:28;;;;;;;8.07;3.83;;;;;;;9.24;78.77;96096.47;6132065;23;20178;-80
2021/09/23 05:18:53;;;;;;;5.77;4.70;;;;;;;9.25;78.82;96089.53;6155484;23;20162;-81
2021/09/23 05:21:19;;;;;;;6.27;3.90;;;;;;;9.23;78.97;96089.66;6132142;23;20159;-79
2021/09/23 05:23:44;;;;;;;7.30;4.03;;;;;;;9.27;78.76;96088.44;6132273;23;20485;-85
2021/09/23 05:26:09;;;;;;;6.27;4.30;;;;;;;9.23;79.16;96081.88;6135979;23;20183;-83
2021/09/23 05:28:36;;;;;;;6.27;3.90;;;;;;;9.25;78.79;96082.56;6144769;23;20227;-79
2021/09/23 05:31:02;;;;;;;4.73;3.67;;;;;;;9.24;78.71;96080.94;6166484;23;20696;-80
2021/09/23 05:33:27;;;;;;;5.53;4.03;;;;;;;9.27;78.58;96072.06;6132615;23;20174;-80
2021/09/23 05:35:52;;;;;;;4.50;3.70;;;;;;;9.25;78.79;96077.38;6169218;23;20171;-79
2021/09/23 05:38:17;;;;;;;6.63;3.90;;;;;;;9.25;78.95;96072.22;6170988;23;20159;-78
2021/09/23 05:40:43;;;;;;;7.43;4.80;;;;;;;9.22;79.16;96075.06;6170495;23;20155;-78
2021/09/23 05:43:08;;;;;;;6.43;4.40;;;;;;;9.24;78.59;96065.38;6168529;23;20170;-79
2021/09/23 05:45:33;;;;;;;8.67;4.60;;;;;;;9.27;78.73;96059.13;6144507;23;20232;-78
2021/09/23 05:47:59;;;;;;;5.73;3.80;;;;;;;9.34;78.64;96061.06;6144529;23;20217;-78
2021/09/23 05:50:24;;;;;;;5.23;4.43;;;;;;;9.41;78.22;96058.81;6145353;23;20155;-80
2021/09/23 05:52:49;;;;;;;5.47;4.30;;;;;;;9.43;78.14;96053.50;6170148;23;20152;-79
2021/09/23 05:55:15;;;;;;;6.13;4.30;;;;;;;9.49;77.88;96050.38;6168364;23;20613;-79
2021/09/23 05:57:41;;;;;;;8.00;4.13;;;;;;;9.51;77.57;96057.09;6144222;23;20163;-79
2021/09/23 06:00:13;;;;;;;5.87;4.00;;;;;;;9.52;77.92;96055.31;6169901;23;20160;-80
2021/09/23 06:02:39;;;;;;;9.37;4.73;;;;;;;9.56;77.64;96056.72;6170931;23;20155;-78
2021/09/23 06:05:05;;;;;;;5.77;3.93;;;;;;;9.66;77.06;96065.34;6144027;23;20155;-78
2021/09/23 06:07:31;;;;;;;7.57;4.13;;;;;;;9.72;76.78;96059.66;6171462;23;20248;-79
2021/09/23 06:09:56;;;;;;;8.20;4.13;;;;;;;9.81;76.62;96061.47;6169195;23;20589;-79
2021/09/23 06:12:22;;;;;;;6.10;4.03;;;;;;;9.84;76.38;96070.75;6169246;23;20266;-78
2021/09/23 06:14:47;;;;;;;7.27;4.57;;;;;;;9.88;76.25;96066.94;6167915;23;20185;-80
2021/09/23 06:17:13;;;;;;;4.63;3.97;;;;;;;9.93;75.98;96068.19;6168933;23;20171;-78
2021/09/23 06:19:39;;;;;;;5.67;4.10;;;;;;;9.93;76.43;96077.75;6143981;23;20175;-78
2021/09/23 06:22:04;;;;;;;7.27;4.10;;;;;;;9.96;76.03;96074.06;6169763;23;20147;-78
2021/09/23 06:24:29;;;;;;;6.20;3.53;;;;;;;10.00;75.92;96070.28;6167092;23;20463;-78
2021/09/23 06:26:55;;;;;;;7.27;4.00;;;;;;;10.03;75.84;96072.59;6168638;23;20231;-79
2021/09/23 06:29:20;;;;;;;3.93;3.37;;;;;;;10.13;75.86;96076.88;6167152;23;20162;-79
2021/09/23 06:31:45;;;;;;;6.27;4.03;;;;;;;10.21;75.50;96074.44;6167935;23;20211;-79
2021/09/23 06:34:10;;;;;;;5.63;3.90;;;;;;;10.15;75.77;96071.53;6166033;23;20191;-78
2021/09/23 06:36:36;;;;;;;5.77;3.87;;;;;;;10.25;75.48;96080.22;6143399;23;20179;-79
2021/09/23 06:39:03;;;;;;;5.50;4.10;;;;;;;10.29;75.48;96073.81;6143314;23;20167;-79
2021/09/23 06:41:28;;;;;;;5.30;3.47;;;;;;;10.35;75.49;96077.66;6168139;23;20151;-79
2021/09/23 06:43:54;;;;;;;7.30;3.67;;;;;;;10.43;75.48;96075.22;6141799;23;20627;-78
2021/09/23 06:46:20;;;;;;;6.07;3.40;;;;;;;10.48;75.41;96075.63;6166437;23;20641;-79
2021/09/23 06:48:47;;;;;;;4.60;3.70;;;;;;;10.56;74.80;96065.38;6141068;23;20162;-79
2021/09/23 06:51:13;;;;;;;5.67;3.67;;;;;;;10.62;74.95;96074.44;6167700;23;20237;-79
2021/09/23 06:53:38;;;;;;;8.43;3.30;;;;;;;10.73;74.44;96079.50;6167486;23;20158;-78
2021/09/23 06:56:04;;;;;;;6.73;3.57;;;;;;;10.84;74.42;96081.94;6166407;23;20190;-79
2021/09/23 06:58:29;;;;;;;7.07;3.50;;;;;;;10.95;73.80;96075.78;6166607;23;20684;-80
2021/09/23 07:00:54;;;;;;;3.97;3.40;;;;;;;11.04;74.20;96072.38;6167505;23;20157;-78
2021/09/23 07:03:19;;;;;;;3.30;2.83;;;;;;;11.15;73.34;96068.84;6167767;23;20166;-79
2021/09/23 07:05:45;;;;;;;5.07;3.43;;;;;;;11.19;72.96;96073.59;6168363;23;20182;-79
2021/09/23 07:08:10;;;;;;;4.53;3.47;;;;;;;11.25;73.00;96073.06;6167409;23;20156;-80
2021/09/23 07:10:36;;;;;;;4.10;3.20;;;;;;;11.36;72.57;96079.88;6143445;23;20159;-80
2021/09/23 07:13:01;;;;;;;4.80;3.13;;;;;;;11.50;71.41;96084.66;6143926;23;20151;-79
2021/09/23 07:15:26;;;;;;;5.03;3.37;;;;;;;11.55;71.60;96081.63;6141735;23;20178;-78
2021/09/23 07:17:52;;;;;;;3.57;3.20;;;;;;;11.61;70.98;96075.84;6143016;23;20151;-78
2021/09/23 07:20:17;;;;;;;7.97;3.47;;;;;;;11.76;70.37;96076.25;6176770;23;20139;-79
2021/09/23 07:22:42;;;;;;;3.33;2.90;;;;;;;11.87;69.91;96079.50;6180713;23;20165;-78
2021/09/23 07:25:08;;;;;;;4.87;3.13;;;;;;;11.97;69.75;96087.28;6148039;23;20182;-79
2021/09/23 07:27:33;;;;;;;3.90;3.07;;;;;;;12.01;69.43;96093.00;6145491;23;20182;-79
2021/09/23 07:29:59;;;;;;;5.27;2.83;;;;;;;12.05;70.19;96092.59;6170325;23;20159;-79
2021/09/23 07:32:24;;;;;;;5.00;3.00;;;;;;;12.16;69.36;96094.19;6155111;23;20175;-79
2021/09/23 07:34:50;;;;;;;3.03;2.63;;;;;;;12.15;69.48;96088.16;6135596;23;20507;-83
2021/09/23 07:37:15;;;;;;;7.40;2.80;;;;;;;12.25;69.19;96087.28;6133041;23;20179;-80
2021/09/23 07:39:41;;;;;;;6.67;2.90;;;;;;;12.37;68.37;96084.38;6152615;23;20648;-81
2021/09/23 07:42:06;;;;;;;4.47;2.67;;;;;;;12.51;68.27;96084.81;6154468;23;20481;-80
2021/09/23 07:44:33;;;;;;;4.23;2.73;;;;;;;12.56;67.61;96086.03;6152739;23;20155;-85
2021/09/23 07:46:59;;;;;;;5.00;2.60;;;;;;;12.68;67.56;96095.28;6131489;23;20183;-85
2021/09/23 07:49:25;;;;;;;3.80;2.60;;;;;;;12.82;67.60;96100.97;6130561;23;20577;-86
2021/09/23 07:51:50;;;;;;;2.43;2.23;;;;;;;12.87;67.46;96104.75;6153331;23;20250;-85
2021/09/23 07:54:16;;;;;;;3.90;2.50;;;;;;;12.94;67.22;96105.78;6129047;23;20198;-83
2021/09/23 07:56:41;;;;;;;3.07;2.73;;;;;;;13.01;66.89;96103.41;6153886;23;20171;-79
2021/09/23 07:59:06;;;;;;;4.20;2.80;;;;;;;13.04;66.54;96100.50;6129758;23;20178;-81
2021/09/23 08:01:32;;;;;;;4.90;2.80;;;;;;;13.14;65.74;96103.84;6153918;23;20151;-80
2021/09/23 08:03:57;;;;;;;3.87;2.70;;;;;;;13.17;65.72;96105.38;6128712;23;20179;-79
2021/09/23 08:06:23;;;;;;;3.07;2.67;;;;;;;13.26;65.80;96113.13;6128595;23;20179;-80
2021/09/23 08:08:48;;;;;;;3.07;2.80;;;;;;;13.29;64.97;96119.84;6153848;23;20160;-80
2021/09/23 08:11:14;;;;;;;3.17;2.33;;;;;;;13.31;65.44;96120.50;6153384;23;20179;-79
2021/09/23 08:13:40;;;;;;;3.90;2.50;;;;;;;13.38;65.10;96112.91;6153060;23;20234;-80
2021/09/23 08:16:05;;;;;;;3.37;2.67;;;;;;;13.39;65.03;96109.31;6153143;23;20179;-79
2021/09/23 08:18:31;;;;;;;2.63;2.43;;;;;;;13.40;64.27;96109.16;6130493;23;20501;-81
2021/09/23 08:20:56;;;;;;;3.17;2.50;;;;;;;13.51;64.42;96113.31;6130772;23;20144;-79
2021/09/23 08:23:22;;;;;;;3.00;2.70;;;;;;;13.60;63.74;96101.97;6154880;23;20158;-80
2021/09/23 08:25:50;;;;;;;3.97;2.67;;;;;;;13.72;62.74;96102.53;6154704;23;20258;-80
2021/09/23 08:28:15;;;;;;;2.97;2.57;;;;;;;13.82;64.01;96100.66;6130492;23;20218;-79
2021/09/23 08:30:42;;;;;;;3.73;3.20;;;;;;;13.91;66.84;96112.78;6155520;23;20159;-80
2021/09/23 08:33:08;;;;;;;3.80;2.97;;;;;;;13.95;66.60;96110.66;6155302;23;20178;-81
2021/09/23 08:35:33;;;;;;;5.00;2.80;;;;;;;13.97;66.46;96106.13;6154337;23;20171;-80
2021/09/23 08:37:58;;;;;;;3.77;3.00;;;;;;;13.98;66.16;96105.16;6155386;23;20234;-79
2021/09/23 08:40:24;;;;;;;7.03;3.10;;;;;;;14.13;65.53;96104.41;6154175;23;20481;-80
2021/09/23 08:42:49;;;;;;;2.57;2.37;;;;;;;14.22;64.81;96105.25;6155938;23;20156;-79
2021/09/23 08:45:17;;;;;;;2.97;2.40;;;;;;;14.19;63.24;96092.50;6155330;23;20210;-80
2021/09/23 08:47:43;;;;;;;3.23;2.57;;;;;;;14.25;63.44;96091.91;6131110;23;20593;-80
2021/09/23 08:50:11;;;;;;;2.80;2.50;;;;;;;14.39;62.35;96096.50;6156151;23;20171;-79
2021/09/23 08:52:37;;;;;;;4.63;2.47;;;;;;;14.64;60.89;96086.97;6154595;23;20420;-79
2021/09/23 08:55:03;;;;;;;4.27;2.40;;;;;;;14.79;60.23;96087.19;6154904;23;20625;-79
2021/09/23 08:57:29;;;;;;;3.40;2.27;;;;;;;14.92;60.29;96092.75;6155790;23;20171;-79
2021/09/23 08:59:55;;;;;;;3.73;2.53;;;;;;;14.93;59.27;96094.44;6156571;23;20529;-79
2021/09/23 09:02:26;;;;;;;2.53;2.30;;;;;;;15.10;58.50;96102.25;6156329;23;20214;-79
2021/09/23 09:04:56;;;;;;;4.30;2.70;;;;;;;15.19;60.48;96104.72;6152432;23;20174;-79
2021/09/23 09:07:27;;;;;;;3.67;3.35;;;;;;;15.30;60.26;96093.97;6130575;23;20588;-79
2021/09/23 09:10:00;;;;;;;3.75;2.70;;;;;;;15.40;59.81;96083.31;6131960;23;20162;-79
2021/09/23 09:12:28;;;;;;;4.00;2.70;;;;;;;15.36;59.85;96087.22;6156121;23;20173;-79
2021/09/23 09:14:54;;;;;;;2.40;2.20;;;;;;;15.58;59.49;96085.78;6157251;23;20214;-79
2021/09/23 09:17:19;;;;;;;3.60;2.77;;;;;;;15.65;60.03;96086.78;6182904;23;20170;-79
2021/09/23 09:19:55;;;;;;;4.30;2.90;;;;;;;15.64;58.82;96084.34;6163077;23;20166;-79
2021/09/23 09:22:22;;;;;;;2.75;2.30;;;;;;;15.64;58.61;96073.84;6158666;23;20211;-80
2021/09/23 09:24:55;;;;;;;4.75;2.65;;;;;;;15.74;58.54;96069.25;6130311;23;20159;-80
2021/09/23 09:27:37;;;;;;;3.47;2.42;;;;;;;15.83;57.22;96068.25;6158712;23;20229;-79
2021/09/23 09:30:13;;;;;;;3.58;2.40;;;;;;;15.95;57.40;96073.94;6156307;23;20142;-79
2021/09/23 09:32:48;;;;;;;3.20;2.20;;;;;;;16.06;56.75;96077.00;6130426;23;20179;-80
2021/09/23 09:35:19;;;;;;;2.47;2.22;;;;;;;16.17;56.00;96078.47;6154733;23;20186;-80
2021/09/23 09:37:50;;;;;;;2.20;2.00;;;;;;;16.21;57.66;96064.03;6155877;23;20156;-80
2021/09/23 09:40:19;;;;;;;3.40;2.50;;;;;;;16.23;57.95;96058.63;6131033;23;20214;-79
2021/09/23 09:42:47;;;;;;;2.90;2.55;;;;;;;16.23;59.29;96048.94;6156150;23;20148;-79
2021/09/23 09:45:19;;;;;;;4.55;3.22;;;;;;;16.13;59.41;96054.41;6130609;23;20162;-80
2021/09/23 09:47:52;;;;;;;7.88;3.00;;;;;;;16.15;59.09;96054.22;6155749;23;20163;-80
2021/09/23 09:50:25;;;;;;;3.40;2.53;;;;;;;16.25;60.18;96054.84;6159115;23;20142;-79
2021/09/23 09:52:58;;;;;;;2.78;2.50;;;;;;;16.31;59.98;96053.34;6158139;23;20180;-79
2021/09/23 09:55:27;;;;;;;4.00;3.13;;;;;;;16.54;59.00;96051.59;6154851;23;20246;-79
2021/09/23 09:57:53;;;;;;;3.22;2.28;;;;;;;16.37;58.91;96037.75;6154387;23;20545;-80
2021/09/23 10:00:19;;;;;;;3.00;2.50;;;;;;;16.31;58.18;96042.88;6154817;23;20159;-80
2021/09/23 10:02:45;;;;;;;3.95;2.67;;;;;;;16.52;57.91;96035.25;6130963;23;20151;-79
2021/09/23 10:05:13;;;;;;;3.28;2.65;;;;;;;16.52;58.08;96037.00;6154804;23;20140;-79
2021/09/23 10:07:46;;;;;;;4.32;2.38;;;;;;;16.60;58.88;96037.78;6131219;23;20629;-79
2021/09/23 10:10:11;;;;;;;2.42;2.22;;;;;;;16.66;58.80;96037.09;6132447;23;20174;-80
2021/09/23 10:12:39;;;;;;;2.85;2.60;;;;;;;16.72;58.35;96045.31;6131158;23;20681;-79
2021/09/23 10:15:06;;;;;;;6.10;2.83;;;;;;;16.92;59.05;96039.44;6156383;23;20465;-79
2021/09/23 10:17:31;;;;;;;4.60;2.83;;;;;;;17.05;58.14;96032.75;6156641;23;20270;-80
2021/09/23 10:19:58;;;;;;;3.53;2.13;;;;;;;17.07;57.44;96029.00;6132134;23;20167;-79
2021/09/23 10:22:25;;;;;;;2.67;2.33;;;;;;;17.01;57.87;96023.63;6130940;23;20657;-79
2021/09/23 10:24:52;;;;;;;2.58;2.20;;;;;;;17.27;57.82;96029.31;6154912;23;20156;-80
2021/09/23 10:30:02;;;;;;;2.90;2.50;;;;;;;17.11;56.73;96032.88;6155259;23;20489;-80
2021/09/23 10:32:28;;;;;;;2.85;2.65;;;;;;;17.03;56.32;96037.38;6155130;23;20187;-79
2021/09/23 10:34:53;;;;;;;3.00;2.42;;;;;;;16.96;56.33;96029.38;6154711;23;20195;-80
2021/09/23 10:37:19;;;;;;;3.80;2.80;;;;;;;17.05;56.92;96033.59;6155185;23;20378;-80
2021/09/23 10:39:45;;;;;;;4.47;2.67;;;;;;;17.09;56.66;96027.00;6154975;23;20210;-82
2021/09/23 10:42:13;;;;;;;3.28;2.88;;;;;;;17.20;56.73;96031.81;6159323;23;20164;-84
2021/09/23 10:44:39;;;;;;;4.10;2.50;;;;;;;16.94;55.77;96042.69;6133272;23;20245;-84
2021/09/23 10:47:07;;;;;;;3.97;2.50;;;;;;;17.07;56.59;96036.88;6154980;23;20752;-86
2021/09/23 10:49:34;;;;;;;6.68;2.78;;;;;;;17.23;55.40;96036.75;6127213;23;20636;-84
2021/09/23 10:51:59;;;;;;;4.35;2.97;;;;;;;17.09;55.19;96045.38;6129423;23;20588;-83
2021/09/23 10:54:25;;;;;;;3.60;2.70;;;;;;;17.09;55.61;96039.31;6130843;23;20247;-83
2021/09/23 10:56:51;;;;;;;2.92;2.60;;;;;;;17.21;54.81;96043.94;6158248;23;20183;-83
2021/09/23 10:59:17;;;;;;;3.72;2.60;;;;;;;17.23;54.46;96049.88;6156153;23;20541;-83
2021/09/23 11:01:44;;;;;;;3.03;2.50;;;;;;;17.37;54.33;96048.25;6131557;23;20535;-82
2021/09/23 11:04:11;;;;;;;3.38;2.90;;;;;;;17.15;54.07;96042.06;6131368;23;20155;-82
2021/09/23 11:06:41;;;;;;;3.70;2.80;;;;;;;17.09;54.04;96042.75;6156094;23;20254;-83
2021/09/23 11:09:20;;;;;;;8.10;3.42;;;;;;;17.20;55.04;96042.31;6156924;23;20167;-82
2021/09/23 11:11:53;;;;;;;4.10;2.70;;;;;;;17.09;54.07;96045.38;6179694;23;20167;-83
2021/09/23 11:14:20;;;;;;;9.30;3.75;;;;;;;17.10;53.26;96033.88;6138715;23;20163;-82
2021/09/23 11:16:50;;;;;;;4.00;2.80;;;;;;;17.33;54.00;96036.50;6129073;23;20179;-82
2021/09/23 11:19:17;;;;;;;4.55;3.00;;;;;;;17.39;54.42;96037.56;6155479;23;20195;-82
2021/09/23 11:21:43;;;;;;;6.43;3.38;;;;;;;17.50;54.21;96031.91;6154762;23;20210;-83
2021/09/23 11:24:09;;;;;;;4.93;3.05;;;;;;;17.39;54.11;96021.81;6128697;23;20574;-82
2021/09/23 11:26:35;;;;;;;9.02;3.00;;;;;;;17.53;54.35;96026.28;6131220;23;20629;-80
2021/09/23 11:29:00;;;;;;;3.55;3.13;;;;;;;17.58;54.16;96004.72;6132346;23;20167;-81
2021/09/23 11:31:26;;;;;;;5.15;3.05;;;;;;;17.68;53.78;96003.50;6155691;23;20174;-80
2021/09/23 11:33:51;;;;;;;6.88;3.08;;;;;;;17.64;53.92;96002.22;6154241;23;20175;-80
2021/09/23 11:36:18;;;;;;;6.47;3.15;;;;;;;17.70;54.13;96001.53;6129882;23;20520;-79
2021/09/23 11:38:43;;;;;;;4.38;3.25;;;;;;;17.69;55.07;96005.13;6154182;23;20160;-79